Time;durP1;ratioP1;P1;durP2;ratioP2;P2;SDS_P1;SDS_P2;PMS_P1;PMS_P2;Temp;Humidity;BMP_temperature;BMP_pressure;BME280_temperature;BME280_humidity;BME280_pressure;Samples;Min_cycle;Max_cycle;Signal;HPM_P1;HPM_P2
2023/06/03 00:01:36;;;;;;;10.47;6.40;;;;;;;;;;752812;185;899298;-73
2023/06/03 00:04:04;;;;;;;6.90;5.40;;;;;;;;;;765920;181;943188;-69
2023/06/03 00:06:28;;;;;;;10.73;6.40;;;;;;;;;;762578;181;881020;-65
2023/06/03 00:08:53;;;;;;;10.90;6.20;;;;;;;;;;766883;182;919164;-66
2023/06/03 00:11:19;;;;;;;6.47;3.50;;;;;;;;;;768614;181;921230;-64
2023/06/03 00:13:45;;;;;;;16.12;7.05;;;;;;;;;;759719;183;920886;-65
2023/06/03 00:16:11;;;;;;;8.63;6.03;;;;;;;;;;766317;181;919616;-70
2023/06/03 00:18:37;;;;;;;18.20;6.07;;;;;;;;;;766287;180;924949;-71
2023/06/03 00:21:03;;;;;;;23.00;8.90;;;;;;;;;;766646;180;920378;-65
2023/06/03 00:23:31;;;;;;;15.07;6.90;;;;;;;;;;767343;180;918638;-66
2023/06/03 00:25:54;;;;;;;8.70;5.00;;;;;;;;;;766948;181;916627;-70
2023/06/03 00:28:20;;;;;;;12.23;6.90;;;;;;;;;;757924;181;916101;-67
2023/06/03 00:30:46;;;;;;;12.70;8.03;;;;;;;;;;761541;182;918172;-67
2023/06/03 00:33:12;;;;;;;8.80;5.07;;;;;;;;;;767442;182;1122600;-66
2023/06/03 00:35:38;;;;;;;9.70;6.37;;;;;;;;;;759990;181;920297;-71
2023/06/03 00:38:04;;;;;;;10.47;6.77;;;;;;;;;;766858;181;917977;-67
2023/06/03 00:40:30;;;;;;;20.10;6.47;;;;;;;;;;767727;181;921639;-69
2023/06/03 00:42:55;;;;;;;11.97;7.67;;;;;;;;;;761707;181;919517;-70
2023/06/03 00:45:21;;;;;;;10.43;6.87;;;;;;;;;;765809;181;920388;-66
2023/06/03 00:47:47;;;;;;;11.52;6.60;;;;;;;;;;767556;182;921900;-69
2023/06/03 00:50:13;;;;;;;13.43;7.77;;;;;;;;;;760916;182;918348;-66
2023/06/03 00:52:39;;;;;;;12.10;9.03;;;;;;;;;;761022;181;919060;-69
2023/06/03 00:55:05;;;;;;;12.27;7.18;;;;;;;;;;758202;184;918101;-66
2023/06/03 00:57:31;;;;;;;12.00;7.00;;;;;;;;;;770093;181;919405;-71
2023/06/03 00:59:57;;;;;;;15.27;6.67;;;;;;;;;;770603;180;919062;-69
2023/06/03 01:02:23;;;;;;;13.27;8.17;;;;;;;;;;763862;181;1016855;-66
2023/06/03 01:04:48;;;;;;;15.90;7.43;;;;;;;;;;762474;182;920210;-66
2023/06/03 01:07:15;;;;;;;10.43;7.10;;;;;;;;;;767566;180;819556;-70
2023/06/03 01:10:00;;;;;;;16.85;9.50;;;;;;;;;;764445;181;920362;-71
2023/06/03 01:12:27;;;;;;;13.23;8.90;;;;;;;;;;769377;180;918290;-71
2023/06/03 01:14:55;;;;;;;14.30;7.87;;;;;;;;;;770011;181;918615;-67
2023/06/03 01:17:21;;;;;;;12.90;7.33;;;;;;;;;;770271;181;916006;-68
2023/06/03 01:19:49;;;;;;;17.73;9.50;;;;;;;;;;761302;182;814690;-67
2023/06/03 01:22:14;;;;;;;14.52;9.48;;;;;;;;;;761511;182;918721;-70
2023/06/03 01:24:42;;;;;;;10.27;8.60;;;;;;;;;;769044;181;918720;-67
2023/06/03 01:27:09;;;;;;;13.70;8.90;;;;;;;;;;762372;182;918284;-71
2023/06/03 01:29:32;;;;;;;10.53;8.30;;;;;;;;;;756943;183;914722;-67
2023/06/03 01:31:58;;;;;;;14.38;8.63;;;;;;;;;;759358;185;914612;-68
2023/06/03 01:34:23;;;;;;;14.70;7.50;;;;;;;;;;774364;181;918602;-73
2023/06/03 01:36:50;;;;;;;15.80;9.57;;;;;;;;;;760071;182;916395;-72
2023/06/03 01:39:15;;;;;;;12.00;8.07;;;;;;;;;;761519;182;945858;-68
2023/06/03 01:41:42;;;;;;;13.77;8.53;;;;;;;;;;768461;182;919293;-70
2023/06/03 01:44:07;;;;;;;17.73;10.13;;;;;;;;;;763557;182;919480;-67
2023/06/03 01:46:33;;;;;;;14.77;9.00;;;;;;;;;;749287;185;924090;-67
2023/06/03 01:48:59;;;;;;;13.60;9.57;;;;;;;;;;747011;185;918334;-67
2023/06/03 01:51:24;;;;;;;13.73;9.70;;;;;;;;;;764481;181;920065;-71
2023/06/03 01:53:50;;;;;;;11.03;7.67;;;;;;;;;;754161;185;918496;-71
2023/06/03 01:56:16;;;;;;;15.73;9.03;;;;;;;;;;773995;182;922962;-70
2023/06/03 01:58:42;;;;;;;12.57;8.45;;;;;;;;;;767931;182;918935;-70
2023/06/03 02:01:08;;;;;;;13.83;9.27;;;;;;;;;;765265;182;918893;-70
2023/06/03 02:03:34;;;;;;;12.80;8.77;;;;;;;;;;768273;181;919139;-67
2023/06/03 02:05:59;;;;;;;14.00;9.33;;;;;;;;;;772910;181;769577;-70
2023/06/03 02:08:25;;;;;;;24.77;12.70;;;;;;;;;;766566;181;817307;-66
2023/06/03 02:10:51;;;;;;;16.93;9.23;;;;;;;;;;760013;182;918512;-67
2023/06/03 02:13:17;;;;;;;19.00;10.48;;;;;;;;;;761283;185;917108;-70
2023/06/03 02:15:43;;;;;;;12.07;9.10;;;;;;;;;;759595;180;816611;-66
2023/06/03 02:18:10;;;;;;;15.77;9.33;;;;;;;;;;763548;182;922530;-70
2023/06/03 02:20:34;;;;;;;15.43;9.60;;;;;;;;;;772037;181;918851;-69
2023/06/03 02:23:02;;;;;;;15.83;9.83;;;;;;;;;;769551;179;917887;-67
2023/06/03 02:25:27;;;;;;;15.87;9.73;;;;;;;;;;759548;182;919645;-67
2023/06/03 02:27:54;;;;;;;13.50;9.63;;;;;;;;;;767932;181;917719;-68
2023/06/03 02:30:19;;;;;;;16.10;10.60;;;;;;;;;;766829;181;920201;-67
2023/06/03 02:32:45;;;;;;;15.90;9.70;;;;;;;;;;760635;183;896535;-69
2023/06/03 02:35:10;;;;;;;14.43;10.35;;;;;;;;;;742985;184;835749;-70
2023/06/03 02:37:36;;;;;;;17.93;9.53;;;;;;;;;;768713;181;908330;-68
2023/06/03 02:40:02;;;;;;;14.80;9.60;;;;;;;;;;768190;181;912212;-69
2023/06/03 02:42:28;;;;;;;16.87;10.10;;;;;;;;;;767291;181;912129;-68
2023/06/03 02:44:54;;;;;;;18.30;10.70;;;;;;;;;;770422;181;851175;-67
2023/06/03 02:47:20;;;;;;;18.33;9.37;;;;;;;;;;766697;181;919051;-68
2023/06/03 02:49:45;;;;;;;16.27;10.37;;;;;;;;;;761789;182;918988;-69
2023/06/03 02:52:11;;;;;;;12.20;9.43;;;;;;;;;;751794;185;926245;-68
2023/06/03 02:54:37;;;;;;;14.73;10.13;;;;;;;;;;762361;178;889811;-68
2023/06/03 02:57:03;;;;;;;19.40;11.40;;;;;;;;;;764293;181;918920;-70
2023/06/03 02:59:29;;;;;;;15.40;11.10;;;;;;;;;;766763;181;918955;-68
2023/06/03 03:01:55;;;;;;;19.17;11.17;;;;;;;;;;774485;181;818317;-66
2023/06/03 03:04:21;;;;;;;15.43;10.17;;;;;;;;;;765868;181;918777;-68
2023/06/03 03:06:49;;;;;;;14.90;9.83;;;;;;;;;;766756;181;917073;-67
2023/06/03 03:09:12;;;;;;;15.90;11.90;;;;;;;;;;767551;181;918252;-68
2023/06/03 03:11:38;;;;;;;17.90;8.90;;;;;;;;;;762134;181;918732;-68
2023/06/03 03:14:04;;;;;;;15.87;11.90;;;;;;;;;;765325;181;769904;-65
2023/06/03 03:16:31;;;;;;;14.48;9.75;;;;;;;;;;766658;181;914708;-68
2023/06/03 03:18:57;;;;;;;14.80;10.37;;;;;;;;;;774101;180;916839;-66
2023/06/03 03:21:22;;;;;;;14.27;9.80;;;;;;;;;;765428;181;919049;-69
2023/06/03 03:23:48;;;;;;;15.20;8.93;;;;;;;;;;757634;181;919821;-66
2023/06/03 03:26:15;;;;;;;19.20;10.73;;;;;;;;;;770033;182;919253;-65
2023/06/03 03:28:40;;;;;;;19.07;11.20;;;;;;;;;;767612;181;918774;-66
2023/06/03 03:31:06;;;;;;;12.25;8.98;;;;;;;;;;766355;182;918362;-65
2023/06/03 03:33:31;;;;;;;15.67;10.17;;;;;;;;;;766935;182;917857;-68
2023/06/03 03:36:08;;;;;;;21.47;9.63;;;;;;;;;;759194;181;919728;-66
2023/06/03 03:38:23;;;;;;;12.20;7.85;;;;;;;;;;744336;186;917635;-67
2023/06/03 03:40:49;;;;;;;17.37;11.37;;;;;;;;;;771387;181;916968;-65
2023/06/03 03:43:15;;;;;;;22.43;10.43;;;;;;;;;;758700;182;856907;-65
2023/06/03 03:45:41;;;;;;;17.23;10.50;;;;;;;;;;752808;184;905089;-67
2023/06/03 03:48:06;;;;;;;20.03;10.03;;;;;;;;;;751644;185;914966;-67
2023/06/03 03:50:37;;;;;;;15.03;9.97;;;;;;;;;;772572;180;919301;-64
2023/06/03 03:53:04;;;;;;;19.15;10.60;;;;;;;;;;772791;180;919097;-64
2023/06/03 03:55:30;;;;;;;14.97;9.80;;;;;;;;;;768440;181;922194;-64
2023/06/03 03:57:56;;;;;;;17.23;10.27;;;;;;;;;;769494;182;818214;-68
2023/06/03 04:00:21;;;;;;;18.12;10.75;;;;;;;;;;757651;182;919542;-67
2023/06/03 04:02:47;;;;;;;18.97;10.13;;;;;;;;;;761243;181;920550;-67
2023/06/03 04:05:15;;;;;;;16.87;10.20;;;;;;;;;;756605;181;1009290;-66
2023/06/03 04:07:40;;;;;;;14.63;9.20;;;;;;;;;;772903;181;919429;-68
2023/06/03 04:10:09;;;;;;;13.90;9.80;;;;;;;;;;762646;181;919317;-68
2023/06/03 04:12:33;;;;;;;15.53;8.60;;;;;;;;;;764996;181;1020962;-65
2023/06/03 04:14:59;;;;;;;16.00;8.97;;;;;;;;;;771202;181;920344;-68
2023/06/03 04:17:26;;;;;;;17.23;10.03;;;;;;;;;;770222;180;917486;-66
2023/06/03 04:19:52;;;;;;;14.47;9.27;;;;;;;;;;765304;181;919313;-65
2023/06/03 04:22:18;;;;;;;15.40;9.40;;;;;;;;;;768994;181;841883;-65
2023/06/03 04:24:44;;;;;;;9.87;6.80;;;;;;;;;;765790;180;818278;-68
2023/06/03 04:27:10;;;;;;;13.23;7.12;;;;;;;;;;758068;182;918106;-70
2023/06/03 04:29:36;;;;;;;12.07;7.30;;;;;;;;;;767923;181;919355;-70
2023/06/03 04:32:02;;;;;;;16.63;7.37;;;;;;;;;;773386;181;847156;-69
2023/06/03 04:34:28;;;;;;;13.23;8.13;;;;;;;;;;765760;181;946007;-70
2023/06/03 04:36:53;;;;;;;9.67;5.23;;;;;;;;;;765229;181;917657;-68
2023/06/03 04:39:19;;;;;;;11.40;7.30;;;;;;;;;;773630;181;813752;-65
2023/06/03 04:41:45;;;;;;;17.47;8.60;;;;;;;;;;764189;181;918305;-69
2023/06/03 04:44:13;;;;;;;13.00;7.30;;;;;;;;;;760857;182;914914;-68
2023/06/03 04:46:39;;;;;;;12.00;7.43;;;;;;;;;;762613;182;920152;-68
2023/06/03 04:49:03;;;;;;;8.00;5.80;;;;;;;;;;755797;185;919477;-66
2023/06/03 04:51:33;;;;;;;15.83;7.30;;;;;;;;;;759896;183;882048;-70
2023/06/03 04:53:56;;;;;;;14.70;6.70;;;;;;;;;;743135;186;859839;-67
2023/06/03 04:56:24;;;;;;;11.00;6.30;;;;;;;;;;770670;181;919349;-67
2023/06/03 04:58:48;;;;;;;10.25;7.05;;;;;;;;;;759884;184;918509;-68
2023/06/03 05:01:17;;;;;;;13.20;8.00;;;;;;;;;;753394;184;919104;-65
2023/06/03 05:03:40;;;;;;;9.13;4.30;;;;;;;;;;763697;182;913196;-66
2023/06/03 05:06:10;;;;;;;10.50;6.77;;;;;;;;;;759910;182;893493;-70
2023/06/03 05:08:32;;;;;;;11.70;5.87;;;;;;;;;;767240;181;894197;-68
2023/06/03 05:10:57;;;;;;;15.47;7.73;;;;;;;;;;759131;185;886660;-65
2023/06/03 05:13:23;;;;;;;13.43;7.83;;;;;;;;;;765235;182;938359;-68
2023/06/03 05:15:49;;;;;;;15.60;9.23;;;;;;;;;;763470;181;918358;-65
2023/06/03 05:18:15;;;;;;;12.73;7.67;;;;;;;;;;761619;181;919986;-65
2023/06/03 05:20:41;;;;;;;13.00;7.90;;;;;;;;;;758763;184;918605;-73
2023/06/03 05:23:07;;;;;;;22.30;10.00;;;;;;;;;;756377;181;918108;-70
2023/06/03 05:25:33;;;;;;;13.47;7.43;;;;;;;;;;763097;181;884293;-66
2023/06/03 05:27:58;;;;;;;17.57;10.80;;;;;;;;;;765339;182;919839;-71
2023/06/03 05:30:24;;;;;;;16.93;9.67;;;;;;;;;;756735;181;919045;-66
2023/06/03 05:32:50;;;;;;;13.10;8.60;;;;;;;;;;762335;180;919623;-66
2023/06/03 05:35:16;;;;;;;15.40;9.17;;;;;;;;;;770946;181;821681;-69
2023/06/03 05:37:42;;;;;;;21.13;10.10;;;;;;;;;;765928;180;918007;-69
2023/06/03 05:40:08;;;;;;;15.47;10.07;;;;;;;;;;766909;180;918166;-70
2023/06/03 05:42:34;;;;;;;13.60;9.20;;;;;;;;;;758270;183;918600;-71
2023/06/03 05:45:00;;;;;;;16.63;10.60;;;;;;;;;;769259;181;916560;-72
2023/06/03 05:47:26;;;;;;;12.27;7.57;;;;;;;;;;762650;181;919188;-74
2023/06/03 05:49:52;;;;;;;16.60;10.60;;;;;;;;;;755819;184;918312;-66
2023/06/03 05:52:17;;;;;;;8.73;5.73;;;;;;;;;;773181;181;820308;-66
2023/06/03 05:54:43;;;;;;;17.80;10.70;;;;;;;;;;766245;180;919434;-68
2023/06/03 05:57:09;;;;;;;10.77;7.90;;;;;;;;;;768738;180;917416;-71
2023/06/03 05:59:35;;;;;;;16.33;7.80;;;;;;;;;;772484;180;832719;-74
2023/06/03 06:02:01;;;;;;;15.77;8.60;;;;;;;;;;772072;181;713925;-71
2023/06/03 06:04:27;;;;;;;13.13;8.15;;;;;;;;;;769282;181;816839;-71
2023/06/03 06:06:53;;;;;;;13.40;7.50;;;;;;;;;;768388;181;918826;-67
2023/06/03 06:09:18;;;;;;;11.30;7.67;;;;;;;;;;770747;180;918668;-70
2023/06/03 06:11:44;;;;;;;14.43;6.20;;;;;;;;;;758527;181;919408;-74
2023/06/03 06:14:10;;;;;;;9.50;6.20;;;;;;;;;;755097;184;865535;-67
2023/06/03 06:16:36;;;;;;;10.35;6.03;;;;;;;;;;752950;184;914779;-76
2023/06/03 06:19:02;;;;;;;10.33;5.60;;;;;;;;;;747056;184;897561;-75
2023/06/03 06:21:28;;;;;;;10.00;4.80;;;;;;;;;;751625;184;939450;-72
2023/06/03 06:23:53;;;;;;;8.27;4.72;;;;;;;;;;767964;181;914515;-67
2023/06/03 06:26:20;;;;;;;9.43;5.80;;;;;;;;;;765110;181;924391;-66
2023/06/03 06:28:45;;;;;;;9.23;5.80;;;;;;;;;;768273;181;918026;-77
2023/06/03 06:31:11;;;;;;;22.20;8.05;;;;;;;;;;766232;180;919402;-71
2023/06/03 06:33:37;;;;;;;13.30;6.00;;;;;;;;;;756628;184;917831;-67
2023/06/03 06:36:04;;;;;;;13.40;6.50;;;;;;;;;;767893;181;888487;-66
2023/06/03 06:38:30;;;;;;;10.00;5.20;;;;;;;;;;764344;181;912629;-66
2023/06/03 06:40:55;;;;;;;10.40;5.67;;;;;;;;;;762278;183;751463;-66
2023/06/03 06:43:25;;;;;;;13.03;6.60;;;;;;;;;;766443;180;1021126;-74
2023/06/03 06:45:47;;;;;;;7.35;4.55;;;;;;;;;;765754;181;919097;-74
2023/06/03 06:48:13;;;;;;;10.27;6.33;;;;;;;;;;769746;181;923708;-65
2023/06/03 06:50:45;;;;;;;7.77;5.17;;;;;;;;;;766437;181;918726;-66
2023/06/03 06:53:11;;;;;;;8.80;5.93;;;;;;;;;;767331;181;818587;-73
2023/06/03 06:55:39;;;;;;;12.00;6.03;;;;;;;;;;767838;181;813498;-66
2023/06/03 06:58:03;;;;;;;10.60;5.93;;;;;;;;;;770765;181;911047;-66
2023/06/03 07:00:29;;;;;;;10.97;5.87;;;;;;;;;;766335;181;918763;-79
2023/06/03 07:02:55;;;;;;;18.00;6.75;;;;;;;;;;768258;181;1019788;-66
2023/06/03 07:05:21;;;;;;;7.80;4.73;;;;;;;;;;769488;181;937897;-77
2023/06/03 07:07:48;;;;;;;7.10;4.03;;;;;;;;;;764157;181;918449;-67
2023/06/03 07:10:12;;;;;;;7.10;4.72;;;;;;;;;;767435;179;927582;-79
2023/06/03 07:12:38;;;;;;;11.10;5.83;;;;;;;;;;771542;180;816951;-65
2023/06/03 07:15:05;;;;;;;15.93;6.03;;;;;;;;;;772454;178;917677;-65
2023/06/03 07:17:30;;;;;;;7.33;4.90;;;;;;;;;;760019;183;919266;-79
2023/06/03 07:19:56;;;;;;;9.90;5.00;;;;;;;;;;759251;181;919106;-76
2023/06/03 07:22:22;;;;;;;15.23;5.57;;;;;;;;;;766366;181;819179;-65
2023/06/03 07:24:48;;;;;;;8.37;5.90;;;;;;;;;;769881;180;859501;-67
2023/06/03 07:27:14;;;;;;;7.13;4.90;;;;;;;;;;769289;180;920845;-66
2023/06/03 07:29:40;;;;;;;11.00;3.63;;;;;;;;;;769144;181;921363;-78
2023/06/03 07:32:07;;;;;;;5.53;3.23;;;;;;;;;;765782;180;918555;-66
2023/06/03 07:34:32;;;;;;;4.90;4.20;;;;;;;;;;764529;181;908630;-66
2023/06/03 07:36:58;;;;;;;5.83;2.60;;;;;;;;;;764865;181;937224;-67
2023/06/03 07:39:24;;;;;;;8.60;3.77;;;;;;;;;;764996;180;922094;-74
2023/06/03 07:41:51;;;;;;;6.27;3.50;;;;;;;;;;758089;185;941944;-77
2023/06/03 07:44:18;;;;;;;8.30;4.53;;;;;;;;;;767181;181;919072;-78
2023/06/03 07:46:42;;;;;;;6.50;3.30;;;;;;;;;;766008;180;918776;-79
2023/06/03 07:49:09;;;;;;;6.97;3.97;;;;;;;;;;762813;181;882808;-68
2023/06/03 07:51:34;;;;;;;6.20;4.07;;;;;;;;;;768622;180;930798;-78
2023/06/03 07:54:00;;;;;;;8.05;4.72;;;;;;;;;;770935;181;942670;-65
2023/06/03 07:56:26;;;;;;;6.97;2.93;;;;;;;;;;761312;181;886971;-78
2023/06/03 07:58:52;;;;;;;6.77;3.80;;;;;;;;;;743127;184;816128;-66
2023/06/03 08:01:18;;;;;;;9.40;4.20;;;;;;;;;;764419;181;916540;-76
2023/06/03 08:03:43;;;;;;;8.00;3.87;;;;;;;;;;752405;184;882539;-73
2023/06/03 08:06:10;;;;;;;5.70;2.73;;;;;;;;;;739640;186;816937;-66
2023/06/03 08:08:36;;;;;;;4.65;2.85;;;;;;;;;;766114;181;924062;-68
2023/06/03 08:11:01;;;;;;;8.57;3.83;;;;;;;;;;772103;180;922023;-75
2023/06/03 08:13:27;;;;;;;7.33;2.90;;;;;;;;;;764194;181;1016013;-65
2023/06/03 08:15:53;;;;;;;9.00;3.50;;;;;;;;;;765987;181;920206;-65
2023/06/03 08:18:24;;;;;;;4.40;2.40;;;;;;;;;;771517;181;923528;-78
2023/06/03 08:20:50;;;;;;;8.57;2.63;;;;;;;;;;759694;181;994985;-75
2023/06/03 08:23:16;;;;;;;9.53;2.10;;;;;;;;;;770199;180;955469;-76
2023/06/03 08:25:42;;;;;;;4.13;2.20;;;;;;;;;;765993;181;917059;-65
2023/06/03 08:28:08;;;;;;;5.12;2.45;;;;;;;;;;773965;181;918317;-74
2023/06/03 08:30:33;;;;;;;4.30;2.37;;;;;;;;;;768035;180;918589;-64
2023/06/03 08:32:59;;;;;;;3.07;1.73;;;;;;;;;;767008;181;919058;-75
2023/06/03 08:35:25;;;;;;;4.70;2.20;;;;;;;;;;752409;185;917382;-65
2023/06/03 08:37:51;;;;;;;2.73;1.70;;;;;;;;;;750955;184;819069;-77
2023/06/03 08:40:17;;;;;;;7.77;2.70;;;;;;;;;;761059;181;941433;-67
2023/06/03 08:42:43;;;;;;;5.20;2.43;;;;;;;;;;762508;182;816777;-74
2023/06/03 08:45:10;;;;;;;5.77;2.60;;;;;;;;;;766567;181;918853;-65
2023/06/03 08:47:43;;;;;;;5.07;2.20;;;;;;;;;;767356;181;858683;-66
2023/06/03 08:50:10;;;;;;;3.65;2.00;;;;;;;;;;762567;181;1022418;-75
2023/06/03 08:52:35;;;;;;;5.90;2.27;;;;;;;;;;771892;181;916167;-65
2023/06/03 08:55:01;;;;;;;5.73;2.70;;;;;;;;;;767165;180;917951;-64
2023/06/03 08:57:29;;;;;;;3.03;1.97;;;;;;;;;;763649;181;917182;-65
2023/06/03 08:59:55;;;;;;;10.13;2.73;;;;;;;;;;768428;181;919091;-72
2023/06/03 09:02:21;;;;;;;6.70;2.23;;;;;;;;;;768263;181;921840;-75
2023/06/03 09:04:46;;;;;;;6.50;2.50;;;;;;;;;;755182;184;922968;-65
2023/06/03 09:07:12;;;;;;;3.57;2.13;;;;;;;;;;755820;182;856300;-76
2023/06/03 09:09:38;;;;;;;9.63;3.03;;;;;;;;;;765286;181;909800;-65
2023/06/03 09:12:04;;;;;;;4.10;2.07;;;;;;;;;;757137;182;918266;-74
2023/06/03 09:14:30;;;;;;;4.40;1.77;;;;;;;;;;764351;181;917813;-66
2023/06/03 09:16:56;;;;;;;4.40;2.50;;;;;;;;;;769589;180;919182;-66
2023/06/03 09:19:22;;;;;;;9.63;2.50;;;;;;;;;;768680;181;887981;-66
2023/06/03 09:21:48;;;;;;;4.35;1.98;;;;;;;;;;758724;185;859712;-74
2023/06/03 09:24:13;;;;;;;3.53;2.23;;;;;;;;;;763093;180;921887;-66
2023/06/03 09:26:39;;;;;;;8.63;1.80;;;;;;;;;;772790;180;813855;-67
2023/06/03 09:29:06;;;;;;;5.47;2.43;;;;;;;;;;760943;180;904494;-66
2023/06/03 09:31:31;;;;;;;3.50;2.00;;;;;;;;;;763874;181;908793;-76
2023/06/03 09:33:57;;;;;;;3.80;2.20;;;;;;;;;;772404;181;922161;-77
2023/06/03 09:36:23;;;;;;;6.10;3.77;;;;;;;;;;760418;181;816285;-75
2023/06/03 09:38:48;;;;;;;4.70;2.47;;;;;;;;;;767422;180;919947;-73
2023/06/03 09:41:15;;;;;;;6.40;2.77;;;;;;;;;;771999;181;913313;-74
2023/06/03 09:43:40;;;;;;;7.97;2.30;;;;;;;;;;770376;181;812051;-77
2023/06/03 09:46:08;;;;;;;6.33;2.50;;;;;;;;;;766357;181;1017293;-80
2023/06/03 09:48:35;;;;;;;6.30;2.50;;;;;;;;;;765849;181;918372;-68
2023/06/03 09:51:00;;;;;;;3.73;2.30;;;;;;;;;;768246;177;815574;-79
2023/06/03 09:53:25;;;;;;;8.60;2.50;;;;;;;;;;760038;182;832518;-66
2023/06/03 09:55:51;;;;;;;3.03;1.70;;;;;;;;;;767802;181;815928;-76
2023/06/03 09:58:17;;;;;;;3.23;1.67;;;;;;;;;;771152;181;870170;-66
2023/06/03 10:00:47;;;;;;;5.53;2.20;;;;;;;;;;765344;181;917347;-74
2023/06/03 10:03:13;;;;;;;7.40;2.40;;;;;;;;;;763373;181;917277;-77
2023/06/03 10:05:41;;;;;;;3.63;1.87;;;;;;;;;;772254;181;849580;-76
2023/06/03 10:08:05;;;;;;;7.87;2.03;;;;;;;;;;764378;180;885607;-76
2023/06/03 10:10:31;;;;;;;7.85;2.70;;;;;;;;;;760100;181;918878;-76
2023/06/03 10:12:56;;;;;;;6.53;2.40;;;;;;;;;;764094;181;919840;-74
2023/06/03 10:15:28;;;;;;;5.77;2.47;;;;;;;;;;770977;180;920193;-65
2023/06/03 10:17:54;;;;;;;3.83;2.40;;;;;;;;;;766476;181;911319;-75
2023/06/03 10:20:26;;;;;;;2.97;1.77;;;;;;;;;;765536;181;918456;-75
2023/06/03 10:22:52;;;;;;;7.03;3.23;;;;;;;;;;764995;181;921728;-66
2023/06/03 10:25:17;;;;;;;6.00;2.50;;;;;;;;;;773704;181;818368;-68
2023/06/03 10:27:43;;;;;;;4.00;1.63;;;;;;;;;;758270;181;920021;-67
2023/06/03 10:30:09;;;;;;;7.80;2.57;;;;;;;;;;752922;184;919562;-78
2023/06/03 10:32:35;;;;;;;4.50;2.50;;;;;;;;;;765906;182;919704;-77
2023/06/03 10:35:02;;;;;;;12.70;2.30;;;;;;;;;;761072;181;917119;-66
2023/06/03 10:37:29;;;;;;;3.28;1.55;;;;;;;;;;766043;181;931614;-79
2023/06/03 10:39:53;;;;;;;4.67;1.90;;;;;;;;;;761541;184;926542;-75
2023/06/03 10:42:19;;;;;;;4.73;1.90;;;;;;;;;;766698;181;1021782;-65
2023/06/03 10:44:45;;;;;;;3.40;1.67;;;;;;;;;;770012;180;899843;-66
2023/06/03 10:47:26;;;;;;;5.70;1.83;;;;;;;;;;766178;181;1020080;-66
2023/06/03 10:49:54;;;;;;;4.27;2.10;;;;;;;;;;765236;180;926057;-75
2023/06/03 10:52:20;;;;;;;5.07;2.10;;;;;;;;;;769193;181;905216;-67
2023/06/03 10:55:01;;;;;;;5.20;1.80;;;;;;;;;;758687;181;912256;-66
2023/06/03 10:57:27;;;;;;;4.50;2.40;;;;;;;;;;754366;184;812695;-65
2023/06/03 10:59:53;;;;;;;5.67;2.37;;;;;;;;;;767016;180;915566;-77
2023/06/03 11:02:20;;;;;;;4.40;2.13;;;;;;;;;;765687;181;915445;-78
2023/06/03 11:04:44;;;;;;;6.00;2.33;;;;;;;;;;769072;180;917383;-77
2023/06/03 11:07:16;;;;;;;5.70;2.73;;;;;;;;;;758900;184;717584;-66
2023/06/03 11:09:42;;;;;;;8.33;2.70;;;;;;;;;;757771;182;907114;-67
2023/06/03 11:12:09;;;;;;;3.73;1.87;;;;;;;;;;768932;181;813017;-68
2023/06/03 11:14:50;;;;;;;4.60;2.20;;;;;;;;;;764968;181;816104;-66
2023/06/03 11:17:15;;;;;;;7.10;2.70;;;;;;;;;;766701;180;916952;-80
2023/06/03 11:19:49;;;;;;;7.97;2.80;;;;;;;;;;766514;181;868236;-67
2023/06/03 11:22:13;;;;;;;3.47;1.47;;;;;;;;;;762265;181;899045;-65
2023/06/03 11:24:54;;;;;;;4.80;3.30;;;;;;;;;;739120;186;917269;-66
2023/06/03 11:27:22;;;;;;;6.80;2.70;;;;;;;;;;764618;181;919169;-66
2023/06/03 11:29:56;;;;;;;5.73;2.30;;;;;;;;;;766168;180;919812;-66
2023/06/03 11:32:23;;;;;;;4.00;2.40;;;;;;;;;;766505;181;884593;-78
2023/06/03 11:34:49;;;;;;;4.90;3.03;;;;;;;;;;770831;181;901809;-66
2023/06/03 11:37:17;;;;;;;3.30;1.60;;;;;;;;;;771309;181;816516;-76
2023/06/03 11:39:48;;;;;;;5.33;2.53;;;;;;;;;;767703;181;816776;-66
2023/06/03 11:42:14;;;;;;;6.23;2.10;;;;;;;;;;767090;180;926008;-78
2023/06/03 11:44:40;;;;;;;8.40;2.47;;;;;;;;;;763350;184;902949;-67
2023/06/03 11:47:05;;;;;;;4.90;2.50;;;;;;;;;;760184;181;919051;-67
2023/06/03 11:49:31;;;;;;;6.33;2.30;;;;;;;;;;767094;181;900667;-81
2023/06/03 11:51:57;;;;;;;4.63;2.20;;;;;;;;;;762997;182;918087;-77
2023/06/03 11:54:23;;;;;;;7.10;2.47;;;;;;;;;;738716;184;908922;-78
2023/06/03 11:56:50;;;;;;;3.70;2.20;;;;;;;;;;767944;181;918147;-76
2023/06/03 11:59:14;;;;;;;11.23;3.33;;;;;;;;;;768239;181;872400;-66
2023/06/03 12:01:46;;;;;;;6.13;2.97;;;;;;;;;;750516;184;912930;-67
2023/06/03 12:04:12;;;;;;;3.50;2.23;;;;;;;;;;766917;181;843522;-68
2023/06/03 12:06:38;;;;;;;4.47;2.43;;;;;;;;;;768735;181;917708;-68
2023/06/03 12:09:03;;;;;;;3.70;1.90;;;;;;;;;;774505;180;696131;-76
2023/06/03 12:11:29;;;;;;;5.10;2.33;;;;;;;;;;766023;181;918620;-77
2023/06/03 12:13:55;;;;;;;6.73;2.53;;;;;;;;;;765102;181;919142;-66
2023/06/03 12:16:26;;;;;;;6.70;2.50;;;;;;;;;;766191;181;917229;-73
2023/06/03 12:18:52;;;;;;;7.70;2.87;;;;;;;;;;762427;184;918940;-77
2023/06/03 12:21:18;;;;;;;10.70;3.00;;;;;;;;;;759767;182;919313;-72
2023/06/03 12:23:45;;;;;;;5.33;2.10;;;;;;;;;;761299;182;825784;-76
2023/06/03 12:26:10;;;;;;;7.90;2.70;;;;;;;;;;770051;181;918882;-76
2023/06/03 12:28:36;;;;;;;8.40;2.90;;;;;;;;;;771068;181;918082;-76
2023/06/03 12:31:08;;;;;;;10.97;3.17;;;;;;;;;;769215;180;817017;-74
2023/06/03 12:33:37;;;;;;;3.57;2.17;;;;;;;;;;761472;181;924082;-66
2023/06/03 12:36:03;;;;;;;5.53;2.60;;;;;;;;;;762071;181;900275;-65
2023/06/03 12:38:29;;;;;;;5.53;2.40;;;;;;;;;;762882;180;916715;-66
2023/06/03 12:41:10;;;;;;;6.27;2.50;;;;;;;;;;766751;180;920270;-77
2023/06/03 12:43:36;;;;;;;5.60;2.57;;;;;;;;;;772786;181;870531;-65
2023/06/03 12:46:18;;;;;;;10.70;2.83;;;;;;;;;;767419;181;919190;-66
2023/06/03 12:48:45;;;;;;;8.40;3.20;;;;;;;;;;773741;181;765690;-66
2023/06/03 12:51:17;;;;;;;12.60;3.30;;;;;;;;;;763464;181;817389;-67
2023/06/03 12:53:43;;;;;;;3.97;2.77;;;;;;;;;;758214;184;946507;-77
2023/06/03 12:56:09;;;;;;;5.97;2.60;;;;;;;;;;760544;181;917809;-66
2023/06/03 12:58:34;;;;;;;4.80;2.87;;;;;;;;;;763977;180;876951;-74
2023/06/03 13:01:00;;;;;;;12.53;3.43;;;;;;;;;;769684;181;938954;-66
2023/06/03 13:03:26;;;;;;;4.57;2.30;;;;;;;;;;770443;181;920087;-66
2023/06/03 13:05:52;;;;;;;5.43;2.47;;;;;;;;;;774773;179;828600;-66
2023/06/03 13:08:18;;;;;;;3.50;2.10;;;;;;;;;;765409;180;922680;-66
2023/06/03 13:10:43;;;;;;;5.50;2.43;;;;;;;;;;757711;184;919017;-75
2023/06/03 13:13:09;;;;;;;7.00;3.23;;;;;;;;;;762467;181;1045257;-74
2023/06/03 13:15:36;;;;;;;5.20;2.93;;;;;;;;;;756693;184;912136;-76
2023/06/03 13:18:01;;;;;;;7.57;3.03;;;;;;;;;;764877;181;919578;-66
2023/06/03 13:20:27;;;;;;;4.07;2.37;;;;;;;;;;768375;181;912247;-75
2023/06/03 13:22:53;;;;;;;4.00;2.33;;;;;;;;;;771093;181;816406;-74
2023/06/03 13:25:19;;;;;;;7.10;3.13;;;;;;;;;;757791;181;918072;-76
2023/06/03 13:27:44;;;;;;;9.20;3.00;;;;;;;;;;760112;185;1123522;-74
2023/06/03 13:30:11;;;;;;;5.80;3.13;;;;;;;;;;774653;180;918206;-75
2023/06/03 13:32:37;;;;;;;6.90;2.70;;;;;;;;;;766524;181;917838;-74
2023/06/03 13:35:03;;;;;;;4.67;2.70;;;;;;;;;;768510;180;919266;-73
2023/06/03 13:37:28;;;;;;;6.70;3.30;;;;;;;;;;768511;181;919257;-67
2023/06/03 13:39:54;;;;;;;7.20;2.50;;;;;;;;;;770085;181;925071;-68
2023/06/03 13:42:20;;;;;;;6.33;2.40;;;;;;;;;;765184;180;917718;-76
2023/06/03 13:44:46;;;;;;;6.37;1.90;;;;;;;;;;766132;180;945597;-68
2023/06/03 13:47:12;;;;;;;4.53;2.20;;;;;;;;;;770521;181;920266;-67
2023/06/03 13:49:38;;;;;;;5.70;2.53;;;;;;;;;;763748;182;918180;-69
2023/06/03 13:52:04;;;;;;;7.20;3.00;;;;;;;;;;766941;180;918666;-69
2023/06/03 13:54:30;;;;;;;5.50;2.50;;;;;;;;;;764404;181;919760;-75
2023/06/03 13:56:55;;;;;;;7.00;2.97;;;;;;;;;;764343;180;920205;-74
2023/06/03 13:59:21;;;;;;;7.30;2.80;;;;;;;;;;765080;181;919497;-67
2023/06/03 14:01:48;;;;;;;4.97;2.07;;;;;;;;;;772327;180;929070;-74
2023/06/03 14:04:14;;;;;;;6.63;2.47;;;;;;;;;;776290;179;919022;-76
2023/06/03 14:06:39;;;;;;;7.60;3.17;;;;;;;;;;762699;182;919031;-76
2023/06/03 14:09:05;;;;;;;6.00;3.20;;;;;;;;;;765957;181;919137;-72
2023/06/03 14:11:31;;;;;;;5.97;2.20;;;;;;;;;;771901;182;923466;-77
2023/06/03 14:13:57;;;;;;;4.50;2.30;;;;;;;;;;760923;182;817252;-68
2023/06/03 14:16:26;;;;;;;6.50;2.60;;;;;;;;;;759311;181;816648;-74